Time;durP1;ratioP1;P1;durP2;ratioP2;P2;SDS_P1;SDS_P2;PMS_P1;PMS_P2;Temp;Humidity;BMP_temperature;BMP_pressure;BME280_temperature;BME280_humidity;BME280_pressure;Samples;Min_cycle;Max_cycle;Signal;HPM_P1;HPM_P2
2022/05/25 00:00:26;;;;;;;8.77;6.80;;;10.60;99.90;;;;;;4973137;28;20043;-63
2022/05/25 00:02:54;;;;;;;8.73;7.43;;;10.70;99.90;;;;;;4973379;28;20043;-63
2022/05/25 00:05:20;;;;;;;8.95;7.13;;;10.90;99.90;;;;;;4972808;28;20070;-63
2022/05/25 00:07:46;;;;;;;11.43;6.82;;;10.40;99.90;;;;;;4973012;28;20054;-63
2022/05/25 00:10:11;;;;;;;9.20;6.53;;;10.50;99.90;;;;;;4973065;28;20047;-63
2022/05/25 00:12:39;;;;;;;8.68;7.00;;;10.60;99.90;;;;;;4973278;28;20051;-63
2022/05/25 00:15:07;;;;;;;9.20;6.82;;;10.60;99.90;;;;;;4972892;28;20047;-63
2022/05/25 00:17:32;;;;;;;7.85;6.80;;;10.10;99.90;;;;;;4973128;28;20390;-63
2022/05/25 00:20:01;;;;;;;7.80;7.00;;;10.00;99.90;;;;;;4973254;28;20131;-63
2022/05/25 00:22:40;;;;;;;7.95;6.82;;;10.40;99.90;;;;;;4972991;28;20066;-63
2022/05/25 00:25:09;;;;;;;10.38;7.50;;;10.00;99.90;;;;;;4972922;28;20050;-63
2022/05/25 00:27:34;;;;;;;8.98;7.40;;;10.20;99.90;;;;;;4972673;28;20490;-63
2022/05/25 00:30:01;;;;;;;10.43;7.70;;;10.60;99.90;;;;;;4972922;28;20117;-63
2022/05/25 00:32:27;;;;;;;9.88;7.40;;;;;;;;;;4972599;28;20388;-63
2022/05/25 00:34:53;;;;;;;11.88;6.78;;;10.50;99.90;;;;;;4973238;28;20050;-63
2022/05/25 00:37:18;;;;;;;8.30;6.88;;;10.00;99.90;;;;;;4972676;28;20057;-63
2022/05/25 00:39:44;;;;;;;8.35;7.25;;;10.30;99.90;;;;;;4972681;28;20093;-64
2022/05/25 00:42:10;;;;;;;10.98;7.38;;;10.10;99.90;;;;;;4972703;28;20055;-63
2022/05/25 00:44:35;;;;;;;8.05;7.20;;;10.40;99.90;;;;;;4939517;28;20054;-63
2022/05/25 00:47:01;;;;;;;10.68;8.20;;;10.00;99.90;;;;;;4972399;28;20081;-63
2022/05/25 00:49:30;;;;;;;8.88;7.32;;;9.80;99.90;;;;;;4972602;28;20086;-63
2022/05/25 00:52:10;;;;;;;8.57;7.68;;;9.70;99.90;;;;;;4972740;28;20399;-63
2022/05/25 00:54:47;;;;;;;13.88;8.10;;;10.10;99.90;;;;;;4955349;28;20054;-63
2022/05/25 00:57:22;;;;;;;8.50;7.32;;;9.90;99.90;;;;;;4974679;28;20058;-63
2022/05/25 01:02:44;;;;;;;9.77;8.10;;;10.00;99.90;;;;;;4972805;28;20494;-59
2022/05/25 01:05:12;;;;;;;8.65;7.75;;;10.00;99.90;;;;;;4962688;28;20136;-58
2022/05/25 01:07:50;;;;;;;9.93;8.55;;;9.50;99.90;;;;;;4965360;28;20341;-60
2022/05/25 01:10:32;;;;;;;10.35;8.10;;;10.00;99.90;;;;;;4969231;28;20050;-59
2022/05/25 01:13:07;;;;;;;10.75;8.95;;;9.80;99.90;;;;;;4959316;28;20050;-59
2022/05/25 01:15:45;;;;;;;8.43;7.55;;;9.80;99.90;;;;;;4976234;28;20059;-58
2022/05/25 01:18:44;;;;;;;8.70;7.80;;;9.60;99.90;;;;;;4951470;29;20114;-58
2022/05/25 01:21:35;;;;;;;9.18;8.25;;;9.80;99.90;;;;;;4943052;29;20043;-58
2022/05/25 01:24:36;;;;;;;10.68;8.60;;;10.10;99.90;;;;;;4939672;29;20058;-52
2022/05/25 01:27:13;;;;;;;13.45;9.38;;;9.70;99.90;;;;;;4939623;29;20055;-54
2022/05/25 01:30:04;;;;;;;13.55;9.75;;;9.80;99.90;;;;;;4953965;28;20118;-54
2022/05/25 01:33:08;;;;;;;10.38;9.02;;;10.00;99.90;;;;;;4942767;28;20062;-56
2022/05/25 01:35:58;;;;;;;12.73;9.50;;;10.10;99.90;;;;;;4944026;28;20070;-53
2022/05/25 01:38:47;;;;;;;12.48;9.80;;;9.60;99.90;;;;;;4975855;28;20054;-54
2022/05/25 01:41:51;;;;;;;11.68;9.82;;;10.00;99.90;;;;;;4957711;28;20051;-51
2022/05/25 01:44:21;;;;;;;12.93;9.73;;;9.90;99.90;;;;;;4975738;28;20550;-51
2022/05/25 01:46:53;;;;;;;12.07;9.90;;;9.60;99.90;;;;;;4958292;28;20061;-54
2022/05/25 01:49:24;;;;;;;14.57;10.50;;;9.50;99.90;;;;;;4975501;28;20573;-55
2022/05/25 01:52:06;;;;;;;11.50;10.30;;;9.60;99.90;;;;;;4975776;28;20379;-54
2022/05/25 01:54:36;;;;;;;12.38;11.05;;;9.70;99.90;;;;;;4975678;28;20053;-54
2022/05/25 01:57:10;;;;;;;16.48;11.90;;;9.60;99.90;;;;;;4975340;28;20050;-53
2022/05/25 01:59:35;;;;;;;17.75;10.77;;;9.50;99.90;;;;;;4958124;28;20039;-55
2022/05/25 02:04:52;;;;;;;13.10;11.75;;;9.60;99.90;;;;;;4975742;28;20133;-53
2022/05/25 02:07:41;;;;;;;11.88;10.68;;;9.60;99.90;;;;;;4975505;28;20057;-54
2022/05/25 02:10:39;;;;;;;13.18;10.32;;;9.70;99.90;;;;;;4944371;29;20055;-55
2022/05/25 02:13:33;;;;;;;13.98;11.25;;;9.70;99.90;;;;;;4922841;29;20115;-54
2022/05/25 02:16:23;;;;;;;12.57;10.57;;;9.60;99.90;;;;;;4955791;29;20047;-53
2022/05/25 02:18:49;;;;;;;11.75;9.77;;;;;;;;;;4955995;29;20130;-54
2022/05/25 02:21:31;;;;;;;10.68;9.55;;;9.50;99.90;;;;;;4938398;29;20051;-55
2022/05/25 02:24:20;;;;;;;19.88;10.88;;;9.50;99.90;;;;;;4938708;29;20491;-52
2022/05/25 02:27:03;;;;;;;11.98;10.68;;;9.70;99.90;;;;;;4938827;29;20050;-54
2022/05/25 02:29:38;;;;;;;20.30;11.43;;;9.50;99.90;;;;;;4955792;29;20427;-54
2022/05/25 02:32:08;;;;;;;13.70;12.13;;;9.10;99.90;;;;;;4955597;29;20087;-54
2022/05/25 02:34:35;;;;;;;13.80;12.00;;;9.60;99.90;;;;;;4955490;29;20309;-53
2022/05/25 02:37:04;;;;;;;12.70;11.07;;;9.30;99.90;;;;;;4955925;29;20359;-55
2022/05/25 02:39:30;;;;;;;12.57;11.10;;;9.20;99.90;;;;;;4955243;29;20059;-53
2022/05/25 02:41:56;;;;;;;13.45;11.90;;;9.50;99.90;;;;;;4955738;29;20043;-51
2022/05/25 02:44:23;;;;;;;15.50;12.52;;;9.10;99.90;;;;;;4955364;29;20051;-54
2022/05/25 02:46:49;;;;;;;13.90;12.05;;;9.50;99.90;;;;;;4938225;29;20061;-52
2022/05/25 02:49:16;;;;;;;14.00;11.93;;;9.50;99.90;;;;;;4955511;29;20498;-54
2022/05/25 02:51:42;;;;;;;19.90;12.13;;;9.40;99.90;;;;;;4955529;29;20135;-54
2022/05/25 02:54:08;;;;;;;14.13;12.25;;;9.40;99.90;;;;;;4955014;29;20130;-56
2022/05/25 02:56:34;;;;;;;17.67;12.20;;;9.50;99.90;;;;;;4921984;29;20047;-54
2022/05/25 02:59:00;;;;;;;15.95;12.60;;;9.00;99.90;;;;;;4938079;29;20402;-54
2022/05/25 03:01:26;;;;;;;14.13;12.07;;;9.40;99.90;;;;;;4954892;29;20053;-52
2022/05/25 03:03:52;;;;;;;14.90;12.75;;;9.20;99.90;;;;;;4955222;29;20079;-53
2022/05/25 03:06:18;;;;;;;19.52;13.90;;;9.40;99.90;;;;;;4954867;29;20192;-52
2022/05/25 03:08:44;;;;;;;15.75;12.50;;;9.60;99.90;;;;;;4955009;29;20160;-53
2022/05/25 03:11:10;;;;;;;15.00;12.00;;;9.40;99.90;;;;;;4955007;29;20575;-52
2022/05/25 03:13:36;;;;;;;16.42;13.02;;;9.60;99.90;;;;;;4954776;29;20090;-53
2022/05/25 03:16:04;;;;;;;17.73;13.68;;;9.40;99.90;;;;;;4954714;29;20047;-54
2022/05/25 03:18:30;;;;;;;14.90;13.30;;;9.40;99.90;;;;;;4954945;29;20491;-52
2022/05/25 03:20:59;;;;;;;16.20;13.48;;;9.40;99.90;;;;;;4954188;28;20047;-54
2022/05/25 03:23:25;;;;;;;18.25;14.18;;;;;;;;;;4954696;29;20102;-54
2022/05/25 03:25:51;;;;;;;17.58;15.23;;;9.60;99.90;;;;;;4954535;29;20047;-59
2022/05/25 03:28:17;;;;;;;23.02;16.58;;;9.30;99.90;;;;;;4955042;29;20490;-59
2022/05/25 03:30:45;;;;;;;20.90;16.20;;;9.20;99.90;;;;;;4954373;29;20055;-59
2022/05/25 03:33:11;;;;;;;21.40;17.08;;;9.60;99.90;;;;;;4954414;29;20055;-59
2022/05/25 03:35:37;;;;;;;21.67;17.52;;;9.30;99.90;;;;;;4954098;29;20055;-59
2022/05/25 03:38:04;;;;;;;22.75;18.80;;;9.40;99.90;;;;;;4937460;29;20430;-59
2022/05/25 03:40:30;;;;;;;18.95;16.95;;;9.50;99.90;;;;;;4954397;29;20054;-59
2022/05/25 03:42:56;;;;;;;22.75;17.42;;;9.50;99.90;;;;;;4954109;29;20043;-59
2022/05/25 03:45:21;;;;;;;22.73;18.35;;;9.10;99.90;;;;;;4954311;29;20122;-59
2022/05/25 03:47:48;;;;;;;25.65;18.58;;;9.50;99.90;;;;;;4936946;29;20073;-59
2022/05/25 03:50:13;;;;;;;24.30;19.10;;;9.20;99.90;;;;;;4954256;29;20399;-59
2022/05/25 03:52:39;;;;;;;24.80;19.20;;;9.50;99.90;;;;;;4954020;29;20130;-58
2022/05/25 03:55:07;;;;;;;22.88;19.17;;;8.70;99.90;;;;;;4954007;29;20122;-59
2022/05/25 03:57:32;;;;;;;23.63;20.02;;;9.60;99.90;;;;;;4954132;29;20058;-59
2022/05/25 03:59:58;;;;;;;21.92;18.52;;;9.90;99.90;;;;;;4954253;29;20043;-58
2022/05/25 04:02:24;;;;;;;20.85;18.48;;;9.70;99.90;;;;;;4954376;29;20053;-58
2022/05/25 04:05:07;;;;;;;26.20;19.77;;;9.70;99.90;;;;;;4953771;29;20058;-59
2022/05/25 04:07:45;;;;;;;22.67;18.90;;;9.70;99.90;;;;;;4953767;29;20067;-58
2022/05/25 04:10:14;;;;;;;24.88;20.17;;;9.20;99.90;;;;;;4953726;29;20055;-59
2022/05/25 04:12:43;;;;;;;23.50;19.95;;;9.70;99.90;;;;;;4954080;29;20110;-58
2022/05/25 04:15:12;;;;;;;26.08;20.65;;;9.80;99.90;;;;;;4953594;29;20051;-58
2022/05/25 04:17:38;;;;;;;28.95;20.98;;;9.90;99.90;;;;;;4936415;29;20062;-58
2022/05/25 04:20:06;;;;;;;22.13;19.23;;;9.20;99.90;;;;;;4949881;28;20054;-59
2022/05/25 04:22:32;;;;;;;26.90;20.30;;;10.00;99.90;;;;;;4955797;28;20043;-58
2022/05/25 04:25:05;;;;;;;28.77;20.48;;;10.20;99.90;;;;;;4972855;28;20109;-59
2022/05/25 04:27:31;;;;;;;30.77;20.33;;;10.00;99.90;;;;;;4955773;28;20134;-59
2022/05/25 04:29:57;;;;;;;26.90;21.75;;;10.40;99.90;;;;;;4972631;28;20137;-58
2022/05/25 04:32:22;;;;;;;24.63;18.98;;;10.50;99.90;;;;;;4972455;28;20061;-58
2022/05/25 04:34:48;;;;;;;19.60;16.10;;;10.50;99.90;;;;;;4955338;28;20051;-58
2022/05/25 04:39:58;;;;;;;16.52;12.70;;;12.50;99.90;;;;;;4973037;28;20138;-59
2022/05/25 04:42:29;;;;;;;15.52;12.50;;;13.80;99.90;;;;;;4972426;28;20134;-60
2022/05/25 04:45:00;;;;;;;16.02;12.80;;;14.70;99.90;;;;;;4973022;28;20050;-60
2022/05/25 04:47:32;;;;;;;13.65;11.55;;;15.60;99.90;;;;;;4955265;28;20081;-60
2022/05/25 04:49:58;;;;;;;11.77;10.38;;;16.40;99.90;;;;;;4972694;28;20069;-59
2022/05/25 04:52:24;;;;;;;14.20;10.25;;;17.10;99.90;;;;;;4972558;28;20051;-60
2022/05/25 04:54:50;;;;;;;11.65;10.43;;;17.80;99.90;;;;;;4972535;28;20125;-59
2022/05/25 04:57:19;;;;;;;12.02;9.95;;;18.40;99.90;;;;;;4955134;28;20502;-59
2022/05/25 04:59:51;;;;;;;14.88;9.73;;;18.90;99.90;;;;;;4972650;28;20070;-60
2022/05/25 05:02:17;;;;;;;11.80;9.13;;;19.50;99.90;;;;;;4972207;28;20525;-59
2022/05/25 05:04:44;;;;;;;12.20;9.30;;;20.10;99.90;;;;;;4954900;28;20055;-59
2022/05/25 05:07:11;;;;;;;11.65;9.25;;;20.50;99.90;;;;;;4972508;28;20126;-59
2022/05/25 05:09:39;;;;;;;14.23;9.70;;;20.90;99.90;;;;;;4972386;28;20506;-56
2022/05/25 05:12:06;;;;;;;11.73;9.30;;;21.10;99.90;;;;;;4955075;28;20054;-56
2022/05/25 05:14:32;;;;;;;11.32;9.13;;;21.50;99.90;;;;;;4955341;28;20090;-56
2022/05/25 05:16:59;;;;;;;11.63;9.15;;;21.80;99.90;;;;;;4955300;28;20105;-57
2022/05/25 05:19:26;;;;;;;12.07;8.73;;;22.10;98.70;;;;;;4972155;28;20509;-56
2022/05/25 05:21:57;;;;;;;12.82;9.15;;;22.40;95.90;;;;;;4972198;28;20490;-56
2022/05/25 05:24:24;;;;;;;12.15;9.18;;;22.90;92.60;;;;;;4972432;28;20046;-56
2022/05/25 05:26:49;;;;;;;11.63;7.65;;;23.20;91.70;;;;;;4972574;28;20057;-56
2022/05/25 05:29:16;;;;;;;14.43;8.20;;;23.50;87.50;;;;;;4972282;28;20043;-55
2022/05/25 05:31:41;;;;;;;11.10;8.35;;;24.00;82.80;;;;;;4972050;28;20529;-56
2022/05/25 05:34:07;;;;;;;11.63;7.90;;;24.30;79.50;;;;;;4972134;28;20043;-56
2022/05/25 05:36:56;;;;;;;9.20;7.90;;;24.40;77.30;;;;;;4972131;28;20507;-56
2022/05/25 05:39:24;;;;;;;14.63;8.18;;;24.70;67.90;;;;;;4972688;28;20043;-56
2022/05/25 05:42:05;;;;;;;12.13;8.07;;;24.80;71.20;;;;;;4955035;28;20473;-56
2022/05/25 05:44:40;;;;;;;11.32;7.95;;;25.00;69.30;;;;;;4975586;28;20117;-56
2022/05/25 05:47:09;;;;;;;12.55;8.20;;;25.00;68.20;;;;;;4958302;28;20046;-56
2022/05/25 05:49:37;;;;;;;11.35;8.20;;;25.20;66.90;;;;;;4975889;28;20113;-56
2022/05/25 05:52:03;;;;;;;10.90;8.38;;;25.50;65.00;;;;;;4975885;28;20461;-58
2022/05/25 05:54:29;;;;;;;11.80;8.13;;;25.70;63.60;;;;;;4958132;28;20062;-56
2022/05/25 05:56:55;;;;;;;15.10;8.02;;;25.70;62.40;;;;;;4975028;28;20051;-56
2022/05/25 05:59:21;;;;;;;11.85;8.13;;;25.80;60.90;;;;;;4975148;28;20053;-56
2022/05/25 06:01:47;;;;;;;11.90;8.15;;;26.20;60.60;;;;;;4941320;29;20105;-56
2022/05/25 06:04:13;;;;;;;20.35;8.80;;;26.40;59.10;;;;;;4939071;29;20063;-56
2022/05/25 06:06:38;;;;;;;12.68;8.15;;;26.60;58.30;;;;;;4922844;29;20066;-56
2022/05/25 06:09:05;;;;;;;15.32;7.85;;;26.80;57.50;;;;;;4956283;29;20051;-56
2022/05/25 06:11:32;;;;;;;15.65;8.20;;;26.70;57.00;;;;;;4938688;29;20051;-56
2022/05/25 06:14:01;;;;;;;12.20;8.13;;;;;;;;;;4954585;29;20440;-56
2022/05/25 06:19:26;;;;;;;13.57;8.40;;;27.10;55.40;;;;;;4954638;28;20053;-56
2022/05/25 06:21:58;;;;;;;14.43;7.63;;;27.20;55.10;;;;;;4958699;28;20406;-56
2022/05/25 06:24:24;;;;;;;11.98;8.27;;;26.80;65.30;;;;;;4974066;28;20494;-56
2022/05/25 06:26:49;;;;;;;14.43;8.10;;;27.40;55.10;;;;;;4913438;28;20126;-56
2022/05/25 06:29:19;;;;;;;12.43;7.95;;;27.40;53.80;;;;;;4960800;28;20129;-56
2022/05/25 06:31:44;;;;;;;16.30;8.90;;;27.20;53.00;;;;;;4938407;28;20086;-56
2022/05/25 06:34:11;;;;;;;12.43;8.93;;;26.90;53.90;;;;;;4956291;28;20089;-56
2022/05/25 06:36:36;;;;;;;13.43;8.45;;;26.40;54.60;;;;;;4973109;28;20074;-56
2022/05/25 06:39:03;;;;;;;13.77;8.60;;;25.60;57.10;;;;;;4972200;28;20038;-56
2022/05/25 06:41:28;;;;;;;13.68;8.90;;;25.20;58.00;;;;;;4972837;28;20118;-56
2022/05/25 06:43:54;;;;;;;11.95;8.30;;;25.00;58.20;;;;;;4972530;28;20145;-56
2022/05/25 06:46:21;;;;;;;14.27;8.95;;;25.00;59.20;;;;;;4972570;28;20328;-56
2022/05/25 06:48:52;;;;;;;12.75;8.10;;;25.30;59.10;;;;;;4972609;28;20399;-56
2022/05/25 06:51:24;;;;;;;15.75;8.40;;;25.70;58.00;;;;;;4972450;28;20537;-56
2022/05/25 06:53:50;;;;;;;14.57;8.27;;;26.30;56.70;;;;;;4972034;28;20121;-59
2022/05/25 06:56:17;;;;;;;12.25;8.45;;;27.30;66.20;;;;;;4969603;28;20140;-59
2022/05/25 06:58:43;;;;;;;14.32;8.68;;;26.90;55.10;;;;;;4954912;28;20050;-59
2022/05/25 07:01:09;;;;;;;13.63;8.20;;;27.00;54.30;;;;;;4955064;28;20051;-59
2022/05/25 07:03:36;;;;;;;11.90;7.82;;;27.00;54.60;;;;;;4971735;28;20047;-60
2022/05/25 07:06:03;;;;;;;10.95;7.78;;;27.00;54.00;;;;;;4938177;28;20565;-56
2022/05/25 07:08:29;;;;;;;15.63;8.23;;;27.10;53.90;;;;;;4952491;28;20153;-56
2022/05/25 07:10:54;;;;;;;15.15;8.40;;;26.90;54.30;;;;;;4951945;28;20094;-56
2022/05/25 07:13:21;;;;;;;14.27;7.32;;;26.50;54.90;;;;;;4969861;28;20050;-56
2022/05/25 07:15:48;;;;;;;13.77;7.32;;;25.70;56.70;;;;;;4967540;28;20066;-56
2022/05/25 07:18:15;;;;;;;12.25;7.25;;;25.40;57.90;;;;;;4973233;28;20163;-56
2022/05/25 07:20:40;;;;;;;13.23;7.25;;;25.20;59.00;;;;;;4980250;28;20054;-56
2022/05/25 07:23:06;;;;;;;9.35;6.88;;;24.80;60.30;;;;;;4945624;28;20062;-56
2022/05/25 07:25:32;;;;;;;10.32;7.03;;;24.60;62.00;;;;;;4971082;28;20490;-56
2022/05/25 07:27:58;;;;;;;11.98;6.40;;;24.60;63.00;;;;;;4970862;28;20043;-56
2022/05/25 07:30:23;;;;;;;12.80;6.80;;;24.40;63.50;;;;;;4969969;28;20057;-56
2022/05/25 07:32:49;;;;;;;10.68;6.85;;;24.20;75.30;;;;;;4953149;28;20035;-56
2022/05/25 07:35:17;;;;;;;12.85;5.97;;;24.20;66.20;;;;;;4969728;28;20133;-56
2022/05/25 07:37:48;;;;;;;11.35;5.57;;;24.00;66.70;;;;;;4970092;28;20447;-56
2022/05/25 07:40:40;;;;;;;7.78;5.72;;;23.80;66.20;;;;;;4953053;28;20109;-56
2022/05/25 07:43:13;;;;;;;7.97;5.20;;;23.30;67.80;;;;;;4969340;28;20474;-56
2022/05/25 07:45:39;;;;;;;8.82;6.10;;;22.90;70.50;;;;;;4969081;28;20043;-56
2022/05/25 07:48:05;;;;;;;10.77;5.20;;;22.90;72.90;;;;;;4971441;28;20042;-56
2022/05/25 07:50:32;;;;;;;7.20;4.25;;;23.10;73.50;;;;;;4971194;28;20490;-56
2022/05/25 07:53:00;;;;;;;8.30;4.40;;;23.10;72.00;;;;;;4971126;28;20114;-56
2022/05/25 07:55:26;;;;;;;7.68;4.57;;;23.20;69.20;;;;;;4970806;28;20669;-56
2022/05/25 07:57:52;;;;;;;6.30;4.20;;;23.10;71.10;;;;;;4970591;28;20043;-56
2022/05/25 08:00:25;;;;;;;9.82;4.85;;;22.80;72.00;;;;;;4971877;28;20046;-56
2022/05/25 08:05:46;;;;;;;6.88;4.10;;;22.50;73.80;;;;;;4969084;28;20179;-56
2022/05/25 08:08:22;;;;;;;8.38;4.28;;;22.80;74.80;;;;;;4971923;28;20213;-56
2022/05/25 08:10:55;;;;;;;14.82;4.60;;;22.80;70.60;;;;;;4954425;28;20078;-56
2022/05/25 08:13:22;;;;;;;8.82;4.30;;;22.80;72.50;;;;;;4971606;28;20479;-57
2022/05/25 08:15:48;;;;;;;8.75;5.35;;;22.70;74.10;;;;;;4971711;28;20481;-56
2022/05/25 08:18:15;;;;;;;7.13;4.35;;;22.60;75.00;;;;;;4954170;28;20130;-56
2022/05/25 08:20:42;;;;;;;6.88;4.00;;;22.90;83.20;;;;;;4971334;28;20045;-56
2022/05/25 08:23:11;;;;;;;7.10;3.50;;;22.70;75.20;;;;;;4954207;28;20045;-57
2022/05/25 08:25:37;;;;;;;6.75;4.20;;;22.50;73.90;;;;;;4971212;28;20136;-56
2022/05/25 08:28:04;;;;;;;7.03;4.35;;;22.30;74.90;;;;;;4971802;28;20049;-56
2022/05/25 08:30:31;;;;;;;8.60;5.10;;;22.40;74.80;;;;;;4971777;28;20050;-56
2022/05/25 08:32:57;;;;;;;7.38;4.28;;;22.40;74.60;;;;;;4971841;28;20082;-56
2022/05/25 08:35:24;;;;;;;5.97;4.05;;;22.30;75.10;;;;;;4971737;28;20401;-56
2022/05/25 08:37:50;;;;;;;7.13;4.50;;;22.30;76.60;;;;;;4971227;28;20526;-56
2022/05/25 08:40:20;;;;;;;7.07;3.72;;;22.10;76.00;;;;;;4971545;28;20046;-56
2022/05/25 08:43:02;;;;;;;6.32;3.92;;;21.90;74.50;;;;;;4971353;28;20405;-56
2022/05/25 08:45:35;;;;;;;8.43;4.45;;;21.80;77.80;;;;;;4971903;28;20094;-56
2022/05/25 08:48:03;;;;;;;8.70;4.40;;;21.80;76.80;;;;;;4971136;28;20035;-56
2022/05/25 08:50:30;;;;;;;9.68;4.40;;;21.80;79.40;;;;;;4971517;28;20302;-56
2022/05/25 08:52:58;;;;;;;8.45;4.03;;;21.80;78.70;;;;;;4971662;28;20039;-56
2022/05/25 08:55:33;;;;;;;9.70;4.70;;;21.90;89.70;;;;;;4968950;28;20079;-56
2022/05/25 08:58:01;;;;;;;7.65;3.60;;;21.90;79.70;;;;;;4971369;28;20137;-56
2022/05/25 09:00:26;;;;;;;7.75;3.20;;;21.90;78.10;;;;;;4953591;28;20138;-56
2022/05/25 09:03:25;;;;;;;6.40;3.33;;;21.80;75.20;;;;;;4970992;28;20161;-56
2022/05/25 09:06:07;;;;;;;8.02;3.40;;;21.60;73.80;;;;;;4971457;28;20065;-56
2022/05/25 09:08:39;;;;;;;7.43;3.65;;;21.30;74.30;;;;;;4971280;28;20082;-56
2022/05/25 09:11:12;;;;;;;7.70;3.80;;;21.40;76.80;;;;;;4971407;28;20057;-56
2022/05/25 09:13:58;;;;;;;6.78;4.00;;;21.30;74.60;;;;;;4971155;28;20050;-56
2022/05/25 09:16:25;;;;;;;;;;;21.40;76.50;;;;;;4954219;28;20059;-56
2022/05/25 09:19:17;;;;;;;6.10;3.80;;;21.70;79.70;;;;;;4974458;28;20546;-60
2022/05/25 09:21:53;;;;;;;7.32;4.07;;;21.70;74.30;;;;;;4973229;28;20130;-59
2022/05/25 09:24:22;;;;;;;8.30;4.10;;;21.80;82.80;;;;;;4975475;28;20054;-60
2022/05/25 09:26:52;;;;;;;6.70;3.90;;;21.70;74.40;;;;;;4975366;28;20051;-60
2022/05/25 09:29:20;;;;;;;6.15;4.00;;;21.60;74.90;;;;;;4975526;28;20113;-59
2022/05/25 09:31:52;;;;;;;5.85;3.58;;;21.40;75.20;;;;;;4975539;28;20047;-59
2022/05/25 09:34:39;;;;;;;8.75;4.38;;;21.20;74.60;;;;;;4975791;28;20113;-60
2022/05/25 09:37:33;;;;;;;7.47;3.92;;;21.10;76.00;;;;;;4975660;28;20514;-59
2022/05/25 09:40:07;;;;;;;5.60;4.00;;;20.90;78.50;;;;;;4959391;28;20443;-60
2022/05/25 09:42:35;;;;;;;7.97;3.90;;;20.80;80.50;;;;;;4975813;28;20042;-59
2022/05/25 09:45:00;;;;;;;6.28;3.78;;;20.30;80.70;;;;;;4975909;28;20043;-60
2022/05/25 09:47:43;;;;;;;5.13;3.67;;;20.70;83.00;;;;;;4958380;28;20062;-60
2022/05/25 09:50:17;;;;;;;4.75;3.95;;;20.70;81.60;;;;;;4975756;28;20130;-60
2022/05/25 09:52:49;;;;;;;6.80;4.03;;;20.70;82.60;;;;;;4975739;28;20057;-60
2022/05/25 09:55:30;;;;;;;5.88;3.97;;;20.70;81.20;;;;;;4975521;28;20054;-60
2022/05/25 09:57:58;;;;;;;6.05;4.00;;;20.70;82.30;;;;;;4975629;28;20054;-60
2022/05/25 10:00:33;;;;;;;7.63;3.90;;;20.60;83.80;;;;;;4975185;28;20051;-59
2022/05/25 10:03:20;;;;;;;7.05;4.07;;;20.60;85.80;;;;;;4975426;28;20112;-60
2022/05/25 10:05:57;;;;;;;7.28;3.88;;;20.60;89.00;;;;;;4973631;28;20150;-60
2022/05/25 10:08:39;;;;;;;7.78;3.90;;;20.60;87.40;;;;;;4975273;28;20086;-59
2022/05/25 10:11:33;;;;;;;5.43;3.53;;;20.60;86.20;;;;;;4975256;28;20051;-59
2022/05/25 10:14:19;;;;;;;7.80;4.03;;;20.60;88.00;;;;;;4975518;28;20043;-60
2022/05/25 10:16:46;;;;;;;4.93;3.55;;;20.70;86.30;;;;;;4975319;28;20059;-56
2022/05/25 10:19:14;;;;;;;4.20;3.30;;;20.90;88.50;;;;;;4975097;28;20114;-57
2022/05/25 10:21:48;;;;;;;5.82;3.15;;;21.00;83.70;;;;;;4975199;28;20050;-59
2022/05/25 10:24:21;;;;;;;5.80;3.70;;;21.00;81.80;;;;;;4975175;28;20050;-56
2022/05/25 10:26:51;;;;;;;6.07;3.83;;;21.00;80.80;;;;;;4957671;28;20055;-57
2022/05/25 10:38:28;;;;;;;5.57;4.30;;;20.70;87.90;;;;;;4974592;28;20039;-57
2022/05/25 10:40:56;;;;;;;6.38;3.28;;;20.70;89.00;;;;;;4974736;28;20047;-57
2022/05/25 10:43:30;;;;;;;4.35;3.10;;;20.70;86.90;;;;;;4941535;28;20479;-56
2022/05/25 10:46:00;;;;;;;6.97;2.97;;;20.60;82.10;;;;;;4974564;28;20047;-56
2022/05/25 10:48:38;;;;;;;4.38;3.08;;;20.40;82.20;;;;;;4974795;28;20046;-56
2022/05/25 10:51:09;;;;;;;6.88;3.03;;;20.20;83.50;;;;;;4974331;28;20042;-56
2022/05/25 10:56:52;;;;;;;7.65;2.90;;;19.70;91.60;;;;;;4974872;28;20050;-56
2022/05/25 10:59:40;;;;;;;9.55;3.40;;;19.30;96.10;;;;;;4974229;28;20101;-56
2022/05/25 11:02:24;;;;;;;12.73;3.90;;;19.00;99.90;;;;;;4974270;28;20086;-55
2022/05/25 11:05:23;;;;;;;9.95;3.65;;;18.60;99.90;;;;;;4974365;28;20478;-56
2022/05/25 11:07:53;;;;;;;19.23;6.90;;;18.30;99.90;;;;;;4921516;28;20046;-56
2022/05/25 11:10:41;;;;;;;9.00;4.78;;;18.10;99.90;;;;;;4974155;28;20053;-55
2022/05/25 11:13:34;;;;;;;12.85;5.18;;;17.90;99.90;;;;;;4974552;28;20493;-55
2022/05/25 11:16:19;;;;;;;11.55;4.32;;;17.70;99.90;;;;;;4974048;28;20066;-60
2022/05/25 11:18:48;;;;;;;8.15;4.70;;;17.70;99.90;;;;;;4974177;28;20053;-60
2022/05/25 11:21:27;;;;;;;9.30;5.00;;;17.90;99.90;;;;;;4974133;28;20063;-59
2022/05/25 11:24:26;;;;;;;8.07;4.72;;;17.90;99.90;;;;;;4974352;28;20086;-60
2022/05/25 11:27:22;;;;;;;8.45;4.95;;;18.10;99.90;;;;;;4928411;28;20398;-60
2022/05/25 11:30:13;;;;;;;7.60;5.03;;;18.30;99.90;;;;;;4973909;28;20038;-60
2022/05/25 11:33:03;;;;;;;9.85;5.60;;;18.60;99.90;;;;;;4956329;28;20050;-60
2022/05/25 11:35:29;;;;;;;7.53;4.22;;;18.80;99.90;;;;;;4973927;28;20047;-60
2022/05/25 11:38:23;;;;;;;8.18;4.50;;;18.90;99.90;;;;;;4973772;28;20053;-60
2022/05/25 11:40:58;;;;;;;7.55;4.97;;;18.90;99.90;;;;;;4958499;28;20054;-60
2022/05/25 11:43:52;;;;;;;7.17;5.00;;;18.90;99.90;;;;;;4973789;28;20060;-60
2022/05/25 11:46:28;;;;;;;11.48;5.10;;;18.90;99.90;;;;;;4973811;28;20282;-60
2022/05/25 11:49:02;;;;;;;7.85;4.72;;;18.90;99.90;;;;;;4973574;28;20392;-60
2022/05/25 11:51:36;;;;;;;8.48;4.80;;;18.90;99.90;;;;;;4973567;28;20054;-60
2022/05/25 11:54:32;;;;;;;6.68;4.88;;;18.80;99.90;;;;;;4973611;28;20051;-59
2022/05/25 11:57:16;;;;;;;6.30;4.90;;;18.70;99.90;;;;;;4973284;28;20141;-60
2022/05/25 12:00:04;;;;;;;6.88;4.93;;;18.80;99.90;;;;;;4973325;28;20402;-60
2022/05/25 12:03:15;;;;;;;8.93;5.30;;;19.00;99.90;;;;;;4973396;28;20162;-60
2022/05/25 12:06:15;;;;;;;8.32;5.55;;;19.10;99.90;;;;;;4973094;28;20398;-60
2022/05/25 12:09:07;;;;;;;8.82;5.50;;;19.10;99.90;;;;;;4956001;28;20047;-60
2022/05/25 12:11:57;;;;;;;8.75;5.90;;;19.20;99.90;;;;;;4973033;28;20062;-60
2022/05/25 12:14:39;;;;;;;8.35;5.90;;;18.60;99.90;;;;;;4972974;28;20538;-60
2022/05/25 12:17:35;;;;;;;7.55;5.75;;;19.20;99.90;;;;;;4955957;28;20051;-60
2022/05/25 12:20:04;;;;;;;7.45;5.55;;;19.10;97.50;;;;;;4973153;28;20046;-60
2022/05/25 12:22:34;;;;;;;7.32;4.82;;;19.00;97.50;;;;;;4973294;28;20482;-60
2022/05/25 12:25:14;;;;;;;7.25;4.70;;;18.90;96.80;;;;;;4972566;28;20047;-60
2022/05/25 12:27:44;;;;;;;10.95;5.38;;;18.90;97.10;;;;;;4955161;28;20042;-60
2022/05/25 12:30:33;;;;;;;8.52;5.55;;;18.80;96.50;;;;;;4955633;28;20054;-60
2022/05/25 12:33:02;;;;;;;10.18;5.93;;;18.90;94.90;;;;;;4969712;28;20047;-60
2022/05/25 12:35:31;;;;;;;8.18;5.80;;;18.80;96.70;;;;;;4960314;28;20054;-60
2022/05/25 12:37:58;;;;;;;6.82;5.00;;;18.70;96.90;;;;;;4946719;29;20465;-60
2022/05/25 12:40:30;;;;;;;7.70;4.75;;;18.50;96.90;;;;;;4954661;28;20043;-60
2022/05/25 12:42:56;;;;;;;11.00;4.80;;;18.50;96.50;;;;;;4971782;28;20075;-60
2022/05/25 12:48:50;;;;;;;9.35;4.85;;;18.50;96.30;;;;;;4968806;28;20085;-56
2022/05/25 12:51:40;;;;;;;8.90;4.90;;;18.50;97.40;;;;;;4971285;28;20125;-56
2022/05/25 12:54:22;;;;;;;7.97;4.80;;;18.50;97.70;;;;;;4970934;28;20458;-56
2022/05/25 12:56:49;;;;;;;5.53;4.88;;;18.70;97.70;;;;;;4953691;28;20055;-56
2022/05/25 12:59:32;;;;;;;10.73;5.05;;;18.80;98.50;;;;;;4971365;28;20047;-56
2022/05/25 13:02:18;;;;;;;9.43;5.60;;;18.90;98.30;;;;;;4968754;28;20515;-56
2022/05/25 13:04:48;;;;;;;;;;;19.00;98.30;;;;;;4954151;28;20514;-56
2022/05/25 13:07:37;;;;;;;8.10;5.40;;;19.10;98.40;;;;;;4971322;28;19944;-56
2022/05/25 13:10:12;;;;;;;10.80;5.20;;;19.30;98.00;;;;;;4953490;28;20054;-56
2022/05/25 13:12:42;;;;;;;7.90;5.10;;;19.40;96.50;;;;;;4969862;28;20047;-56
2022/05/25 13:15:20;;;;;;;7.85;5.05;;;19.50;97.10;;;;;;4953573;28;20054;-60
2022/05/25 13:17:54;;;;;;;6.95;4.70;;;19.60;97.10;;;;;;4953967;28;20050;-60
2022/05/25 13:20:28;;;;;;;8.95;3.97;;;19.70;96.10;;;;;;4971608;28;20051;-60
2022/05/25 13:22:59;;;;;;;6.63;3.53;;;19.90;94.30;;;;;;4971231;28;20094;-60
2022/05/25 13:25:41;;;;;;;9.40;3.10;;;19.90;95.10;;;;;;4953796;28;20466;-61
2022/05/25 13:28:28;;;;;;;8.60;3.30;;;19.90;94.60;;;;;;4969872;28;20077;-56
2022/05/25 13:31:03;;;;;;;7.30;2.85;;;19.90;94.30;;;;;;4953485;28;20090;-58
2022/05/25 13:33:39;;;;;;;3.92;2.17;;;20.00;95.40;;;;;;4971212;28;20399;-57
2022/05/25 13:36:05;;;;;;;4.53;1.85;;;20.10;93.30;;;;;;4969017;28;20051;-57
2022/05/25 13:38:38;;;;;;;4.75;1.90;;;20.20;89.80;;;;;;4970881;28;20043;-60
2022/05/25 13:41:08;;;;;;;5.25;1.83;;;20.20;83.30;;;;;;4954317;28;20054;-60